KASD

Slidell Airport

Slidell, Louisiana, USA
KASD 221120Z 2212/2312 15009KT P6SM OVC045 FM230300 15008KT P6SM VCSH SCT020 OVC025 FM230600 17008KT P6SM SCT016 OVC022 FM230700 17008KT P6SM SCT009 OVC016 FM230900 18008KT 6SM -RA SCT010 OVC027
Issued Valid From Valid To
Jan-22 @ 11:20 UTC
(6 hours ago)
Jan-22 @ 12:00 UTC
(5 hours ago)
Jan-23 @ 12:00 UTC
(in 19 hours)
Jan-22 @ 12:00 to Jan-23 @ 03:00
KASD 221120Z 2212/2312 15009KT P6SM OVC045
Wind Visibility Clouds
150° at 9 knots Greater than 6 miles
  • Overcast at 4,500' AGL
From Jan-23 @ 03:00 to Jan-23 @ 06:00
FM230300 15008KT P6SM VCSH SCT020 OVC025
Wind Visibility Clouds
150° at 8 knots Greater than 6 miles
  • Scattered at 2,000' AGL
  • Overcast at 2,500' AGL
From Jan-23 @ 06:00 to Jan-23 @ 07:00
FM230600 17008KT P6SM SCT016 OVC022
Wind Visibility Clouds
170° at 8 knots Greater than 6 miles
  • Scattered at 1,600' AGL
  • Overcast at 2,200' AGL
From Jan-23 @ 07:00 to Jan-23 @ 09:00
FM230700 17008KT P6SM SCT009 OVC016
Wind Visibility Clouds
170° at 8 knots Greater than 6 miles
  • Scattered at 900' AGL
  • Overcast at 1,600' AGL
From Jan-23 @ 09:00 to Jan-23 @ 12:00
FM230900 18008KT 6SM -RA SCT010 OVC027
Wind Visibility Clouds Conditions
180° at 8 knots 6 miles
  • Scattered at 1,000' AGL
  • Overcast at 2,700' AGL
  • Light Rain
KASD 221120Z 2212/2312 15009KT P6SM OVC045 FM230300 15008KT P6SM VCSH SCT020 OVC025 FM230600 17008KT P6SM SCT016 OVC022 FM230700 17008KT P6SM SCT009 OVC016 FM230900 18008KT 6SM -RA SCT010 OVC027
Issued Jan-22 @ 11:20 UTC
(6 hours ago)
Valid From Jan-22 @ 12:00 UTC
(5 hours ago)
Valid To Jan-23 @ 12:00 UTC
(in 19 hours)
Jan-22 @ 12:00 - Jan-23 @ 03:00
Wind Visibility
150° at 9 knots Greater than 6 miles
Clouds
  • Overcast at 4,500' AGL
From Jan-23 @ 03:00 - Jan-23 @ 06:00
Wind Visibility
150° at 8 knots Greater than 6 miles
Clouds
  • Scattered at 2,000' AGL
  • Overcast at 2,500' AGL
From Jan-23 @ 06:00 - Jan-23 @ 07:00
Wind Visibility
170° at 8 knots Greater than 6 miles
Clouds
  • Scattered at 1,600' AGL
  • Overcast at 2,200' AGL
From Jan-23 @ 07:00 - Jan-23 @ 09:00
Wind Visibility
170° at 8 knots Greater than 6 miles
Clouds
  • Scattered at 900' AGL
  • Overcast at 1,600' AGL
From Jan-23 @ 09:00 - Jan-23 @ 12:00
Wind Visibility
180° at 8 knots 6 miles
Clouds
  • Scattered at 1,000' AGL
  • Overcast at 2,700' AGL
Conditions
  • Light Rain